createdAt,value
2022-11-03T00:09:56.493Z,100.00
2022-11-03T00:32:56.335Z,100.00
2022-11-03T00:44:01.046Z,100.00
2022-11-03T00:55:02.117Z,99.95
2022-11-03T01:06:03.944Z,99.91
2022-11-03T01:16:52.322Z,99.94
2022-11-03T01:27:46.481Z,100.00
2022-11-03T01:39:11.409Z,100.00
2022-11-03T01:50:32.066Z,100.00
2022-11-03T02:12:06.160Z,100.00
2022-11-03T02:22:35.266Z,100.00
2022-11-03T02:32:45.465Z,100.00
2022-11-03T02:42:51.988Z,100.00
2022-11-03T02:52:54.195Z,100.00
2022-11-03T03:03:06.482Z,100.00
2022-11-03T03:13:12.128Z,100.00
2022-11-03T03:23:26.061Z,100.00
2022-11-03T03:33:29.756Z,100.00
2022-11-03T03:43:34.263Z,100.00
2022-11-03T03:53:35.875Z,100.00
2022-11-03T04:03:37.610Z,100.00
2022-11-03T04:13:58.096Z,100.00
2022-11-03T04:23:59.891Z,100.00
2022-11-03T04:34:04.202Z,100.00
2022-11-03T04:44:13.428Z,100.00
2022-11-03T04:54:21.052Z,100.00
2022-11-03T05:04:22.669Z,100.00
2022-11-03T05:14:27.044Z,100.00
2022-11-03T05:24:30.437Z,100.00
2022-11-03T05:34:40.853Z,100.00
2022-11-03T05:44:42.635Z,100.00
2022-11-03T05:54:45.243Z,100.00
2022-11-03T06:04:48.727Z,100.00
2022-11-03T06:14:52.290Z,100.00
2022-11-03T06:24:58.759Z,100.00
2022-11-03T06:35:00.496Z,100.00
2022-11-03T06:45:14.152Z,100.00
2022-11-03T06:55:22.393Z,100.00
2022-11-03T07:05:29.688Z,100.00
2022-11-03T07:15:36.491Z,100.00
2022-11-03T07:25:38.145Z,100.00
2022-11-03T07:36:13.282Z,100.00
2022-11-03T07:46:05.525Z,100.00
2022-11-03T07:56:38.305Z,100.00
2022-11-03T08:06:40.097Z,100.00
2022-11-03T08:16:42.063Z,100.00
2022-11-03T08:26:43.756Z,100.00
2022-11-03T08:36:45.592Z,98.99
2022-11-03T08:46:47.246Z,98.16
2022-11-03T08:56:48.931Z,97.24
2022-11-03T09:06:50.625Z,95.25
2022-11-03T09:16:52.411Z,94.48
2022-11-03T09:26:55.967Z,93.41
2022-11-03T09:37:01.182Z,92.83
2022-11-03T09:47:12.697Z,92.59
2022-11-03T09:57:16.616Z,91.81
2022-11-03T10:07:18.535Z,90.55
2022-11-03T10:17:25.833Z,89.76
2022-11-03T10:27:27.570Z,89.08
2022-11-03T10:37:29.318Z,88.04
2022-11-03T10:47:34.179Z,87.04
2022-11-03T10:57:36.101Z,85.07
2022-11-03T11:07:39.808Z,83.18
2022-11-03T11:17:47.316Z,82.72
2022-11-03T11:27:49.697Z,81.24
2022-11-03T11:37:53.968Z,79.98
2022-11-03T11:47:55.654Z,79.47
2022-11-03T11:58:00.133Z,78.19
2022-11-03T12:08:01.928Z,78.04
2022-11-03T12:18:41.616Z,77.24
2022-11-03T12:28:45.449Z,76.27
2022-11-03T12:38:47.106Z,74.59
2022-11-03T12:48:49.001Z,73.54
2022-11-03T12:59:18.808Z,73.32
2022-11-03T13:09:20.855Z,73.71
2022-11-03T13:19:22.479Z,73.73
2022-11-03T13:29:24.207Z,73.30
2022-11-03T13:39:26.041Z,72.33
2022-11-03T13:59:49.367Z,72.95
2022-11-03T14:09:51.102Z,75.15
2022-11-03T14:19:55.600Z,76.39
2022-11-03T14:30:01.211Z,77.25
2022-11-03T14:40:03.568Z,78.77
2022-11-03T14:50:06.002Z,79.60
2022-11-03T15:00:09.833Z,81.08
2022-11-03T15:10:11.462Z,81.86
2022-11-03T15:20:13.144Z,83.02
2022-11-03T15:30:15.882Z,84.01
2022-11-03T15:40:17.656Z,84.52
2022-11-03T15:50:20.002Z,85.85
2022-11-03T16:00:21.813Z,86.80
2022-11-03T16:10:23.595Z,87.70
2022-11-03T16:20:26.858Z,88.79
2022-11-03T16:30:29.069Z,89.66
2022-11-03T16:40:30.871Z,90.11
2022-11-03T16:50:32.899Z,91.29
2022-11-03T17:00:34.602Z,92.84
2022-11-03T17:10:36.257Z,92.62
2022-11-03T17:20:38.005Z,91.52
2022-11-03T17:30:40.229Z,90.69
2022-11-03T17:40:44.058Z,91.10
2022-11-03T17:50:48.810Z,91.33
2022-11-03T18:00:50.622Z,91.20
2022-11-03T18:10:53.826Z,91.98
2022-11-03T18:20:56.303Z,92.41
2022-11-03T18:30:58.199Z,93.38
2022-11-03T18:41:00.366Z,95.28
2022-11-03T18:51:02.035Z,95.51
2022-11-03T19:01:35.056Z,96.22
2022-11-03T19:11:49.968Z,96.81
2022-11-03T19:21:52.586Z,97.61
2022-11-03T19:31:54.482Z,98.25
2022-11-03T19:42:19.261Z,98.38
2022-11-03T19:52:26.527Z,98.47
2022-11-03T20:02:28.601Z,98.61
2022-11-03T20:12:30.628Z,98.88
2022-11-03T20:22:33.145Z,99.34
2022-11-03T20:32:34.865Z,99.84
2022-11-03T20:42:36.643Z,99.98
2022-11-03T20:52:40.149Z,100.00
2022-11-03T21:02:42.708Z,100.00
2022-11-03T21:12:45.183Z,100.00
2022-11-03T21:22:54.644Z,100.00
2022-11-03T21:32:56.504Z,100.00
2022-11-03T21:43:16.893Z,100.00
2022-11-03T21:53:18.588Z,100.00
2022-11-03T22:03:20.238Z,100.00
2022-11-03T22:13:21.944Z,100.00
2022-11-03T22:23:42.403Z,100.00
2022-11-03T22:34:02.893Z,100.00
2022-11-03T22:44:24.046Z,100.00
2022-11-03T22:54:25.670Z,100.00
2022-11-03T23:04:27.467Z,100.00
2022-11-03T23:14:49.067Z,100.00
2022-11-03T23:24:59.745Z,100.00
2022-11-03T23:35:02.758Z,100.00
2022-11-03T23:45:23.798Z,100.00
2022-11-03T23:55:25.410Z,100.00
